createdAt,value
2024-04-25T00:02:22.124Z,99.90
2024-04-25T00:06:23.567Z,99.90
2024-04-25T00:10:24.889Z,99.90
2024-04-25T00:14:26.745Z,99.90
2024-04-25T00:18:28.287Z,99.90
2024-04-25T00:22:29.929Z,99.90
2024-04-25T00:26:31.254Z,99.90
2024-04-25T00:30:32.583Z,99.90
2024-04-25T00:34:34.191Z,99.90
2024-04-25T00:38:35.843Z,99.90
2024-04-25T00:42:37.179Z,99.90
2024-04-25T00:46:40.305Z,99.90
2024-04-25T00:50:42.310Z,99.90
2024-04-25T00:54:44.018Z,99.90
2024-04-25T00:58:47.543Z,99.90
2024-04-25T01:02:51.579Z,99.90
2024-04-25T01:06:56.225Z,99.90
2024-04-25T01:10:57.638Z,99.90
2024-04-25T01:14:59.465Z,99.90
2024-04-25T01:19:00.832Z,99.90
2024-04-25T01:23:06.007Z,99.90
2024-04-25T01:27:08.823Z,99.90
2024-04-25T01:31:10.544Z,99.90
2024-04-25T01:35:12.775Z,99.90
2024-04-25T01:39:14.302Z,99.90
2024-04-25T01:43:15.617Z,99.90
2024-04-25T01:47:17.012Z,99.90
2024-04-25T01:51:19.626Z,99.90
2024-04-25T01:55:22.844Z,99.90
2024-04-25T01:59:24.168Z,99.90
2024-04-25T02:03:25.764Z,99.90
2024-04-25T02:07:27.164Z,99.90
2024-04-25T02:11:30.599Z,99.90
2024-04-25T02:15:32.476Z,99.90
2024-04-25T02:19:33.840Z,99.90
2024-04-25T02:23:53.747Z,99.90
2024-04-25T02:27:55.059Z,99.90
2024-04-25T02:31:56.751Z,99.90
2024-04-25T02:35:58.141Z,99.90
2024-04-25T02:39:59.455Z,99.90
2024-04-25T02:44:00.854Z,99.90
2024-04-25T02:48:02.419Z,99.90
2024-04-25T02:52:04.452Z,99.90
2024-04-25T02:56:06.558Z,99.90
2024-04-25T03:00:08.972Z,99.90
2024-04-25T03:04:12.524Z,99.90
2024-04-25T03:08:13.471Z,99.90
2024-04-25T03:12:14.907Z,99.90
2024-04-25T03:16:16.865Z,99.90
2024-04-25T03:20:18.267Z,99.90
2024-04-25T03:24:19.615Z,99.90
2024-04-25T03:28:21.377Z,99.90
2024-04-25T03:32:23.039Z,99.90
2024-04-25T03:36:25.758Z,99.90
2024-04-25T03:40:27.546Z,99.90
2024-04-25T03:44:28.936Z,99.90
2024-04-25T03:48:30.434Z,99.90
2024-04-25T03:52:31.839Z,99.90
2024-04-25T03:56:33.170Z,99.90
2024-04-25T04:00:34.494Z,99.90
2024-04-25T04:04:35.798Z,99.90
2024-04-25T04:08:37.250Z,99.90
2024-04-25T04:12:38.956Z,99.90
2024-04-25T04:16:41.247Z,99.90
2024-04-25T04:20:44.505Z,99.90
2024-04-25T04:24:46.070Z,99.90
2024-04-25T04:28:47.369Z,99.90
2024-04-25T04:32:48.893Z,99.90
2024-04-25T04:36:50.326Z,99.90
2024-04-25T04:40:51.632Z,99.90
2024-04-25T04:44:52.934Z,99.90
2024-04-25T04:48:54.644Z,99.90
2024-04-25T04:52:56.084Z,99.90
2024-04-25T05:01:06.397Z,99.90
2024-04-25T05:05:07.745Z,99.90
2024-04-25T05:09:10.026Z,99.90
2024-04-25T05:13:12.208Z,99.90
2024-04-25T05:17:13.543Z,99.90
2024-04-25T05:21:15.410Z,99.90
2024-04-25T05:25:17.374Z,99.90
2024-04-25T05:29:18.653Z,99.90
2024-04-25T05:33:20.186Z,99.90
2024-04-25T05:37:23.027Z,99.90
2024-04-25T05:41:24.647Z,99.90
2024-04-25T05:45:26.003Z,99.90
2024-04-25T05:49:27.308Z,99.90
2024-04-25T05:53:28.958Z,99.90
2024-04-25T05:57:30.718Z,99.90
2024-04-25T06:01:32.036Z,99.90
2024-04-25T06:05:34.142Z,99.90
2024-04-25T06:09:35.569Z,99.90
2024-04-25T06:13:37.312Z,99.90
2024-04-25T06:17:42.137Z,99.90
2024-04-25T06:21:43.639Z,99.90
2024-04-25T06:25:46.459Z,99.90
2024-04-25T06:29:47.850Z,99.90
2024-04-25T06:33:50.543Z,99.90
2024-04-25T06:37:51.912Z,99.90
2024-04-25T06:41:58.310Z,99.90
2024-04-25T06:45:56.408Z,99.90
2024-04-25T06:49:57.749Z,99.90
2024-04-25T06:53:59.061Z,99.90
2024-04-25T06:58:00.746Z,99.90
2024-04-25T07:02:07.055Z,99.90
2024-04-25T07:06:09.228Z,99.90
2024-04-25T07:10:10.758Z,99.90
2024-04-25T07:14:12.071Z,99.90
2024-04-25T07:18:15.451Z,99.90
2024-04-25T07:22:16.914Z,99.90
2024-04-25T07:26:18.288Z,99.00
2024-04-25T07:30:20.298Z,98.90
2024-04-25T07:34:21.620Z,98.20
2024-04-25T07:38:23.040Z,97.40
2024-04-25T07:42:24.960Z,97.50
2024-04-25T07:46:27.055Z,94.50
2024-04-25T07:50:28.696Z,90.00
2024-04-25T07:54:30.039Z,83.60
2024-04-25T07:58:31.381Z,86.40
2024-04-25T08:02:33.780Z,85.00
2024-04-25T08:06:35.073Z,81.20
2024-04-25T08:10:36.955Z,83.70
2024-04-25T08:14:40.210Z,82.00
2024-04-25T08:18:43.450Z,80.00
2024-04-25T08:22:44.781Z,81.50
2024-04-25T08:26:46.130Z,83.40
2024-04-25T08:30:47.686Z,82.20
2024-04-25T08:34:49.055Z,82.10
2024-04-25T08:38:50.746Z,81.10
2024-04-25T08:42:53.244Z,68.90
2024-04-25T08:46:57.001Z,66.00
2024-04-25T08:50:59.355Z,65.10
2024-04-25T08:55:00.836Z,65.20
2024-04-25T08:59:02.417Z,65.10
2024-04-25T09:03:13.654Z,67.60
2024-04-25T09:07:15.781Z,64.00
2024-04-25T09:11:26.285Z,63.30
2024-04-25T09:15:27.726Z,63.20
2024-04-25T09:19:30.334Z,63.10
2024-04-25T09:23:40.555Z,61.30
2024-04-25T09:27:42.165Z,56.70
2024-04-25T09:31:43.606Z,58.50
2024-04-25T09:35:45.678Z,66.10
2024-04-25T09:39:55.145Z,72.60
2024-04-25T09:43:50.993Z,91.50
2024-04-25T09:47:54.494Z,99.90
2024-04-25T09:52:03.111Z,99.90
2024-04-25T09:56:06.684Z,99.90
2024-04-25T10:00:08.758Z,99.90
2024-04-25T10:04:10.928Z,99.90
2024-04-25T10:08:12.480Z,99.90
2024-04-25T10:12:21.341Z,99.90
2024-04-25T10:16:22.782Z,99.90
2024-04-25T10:20:25.056Z,99.90
2024-04-25T10:24:26.386Z,94.20
2024-04-25T10:28:31.743Z,96.10
2024-04-25T10:32:36.211Z,99.90
2024-04-25T10:36:38.134Z,82.00
2024-04-25T10:40:42.481Z,94.70
2024-04-25T10:44:49.157Z,96.00
2024-04-25T10:48:50.973Z,97.80
2024-04-25T10:52:52.395Z,92.70
2024-04-25T10:56:53.733Z,92.30
2024-04-25T11:00:55.085Z,83.90
2024-04-25T11:04:59.183Z,73.00
2024-04-25T11:09:01.391Z,96.40
2024-04-25T11:13:03.647Z,64.80
2024-04-25T11:17:05.560Z,66.20
2024-04-25T11:21:08.429Z,58.70
2024-04-25T11:25:17.698Z,54.60
2024-04-25T11:29:19.485Z,59.00
2024-04-25T11:33:27.334Z,64.30
2024-04-25T11:37:37.610Z,76.40
2024-04-25T11:41:41.557Z,78.60
2024-04-25T11:45:46.988Z,84.00
2024-04-25T11:49:48.356Z,93.00
2024-04-25T11:53:49.707Z,97.30
2024-04-25T11:57:51.186Z,96.80
2024-04-25T12:01:54.836Z,99.30
2024-04-25T12:05:56.101Z,99.90
2024-04-25T12:09:57.550Z,99.90
2024-04-25T12:13:58.867Z,95.60
2024-04-25T12:18:00.614Z,95.40
2024-04-25T12:22:02.335Z,88.40
2024-04-25T12:26:03.949Z,80.10
2024-04-25T12:30:06.240Z,76.60
2024-04-25T12:34:09.616Z,71.50
2024-04-25T12:38:11.189Z,66.10
2024-04-25T12:42:12.534Z,66.90
2024-04-25T12:46:13.926Z,63.20
2024-04-25T12:50:17.494Z,67.30
2024-04-25T12:54:18.509Z,60.00
2024-04-25T12:58:19.820Z,59.80
2024-04-25T13:02:21.387Z,62.00
2024-04-25T13:06:22.665Z,61.10
2024-04-25T13:10:24.040Z,56.60
2024-04-25T13:14:25.670Z,56.20
2024-04-25T13:18:27.080Z,55.80
2024-04-25T13:22:28.839Z,54.60
2024-04-25T13:26:34.125Z,54.90
2024-04-25T13:30:37.435Z,54.80
2024-04-25T13:34:40.879Z,57.20
2024-04-25T13:38:42.686Z,55.20
2024-04-25T13:42:45.456Z,53.80
2024-04-25T13:46:46.797Z,50.40
2024-04-25T13:50:48.344Z,50.20
2024-04-25T13:54:49.970Z,50.30
2024-04-25T13:58:51.756Z,49.80
2024-04-25T14:02:53.260Z,51.40
2024-04-25T14:06:55.089Z,52.00
2024-04-25T14:10:56.389Z,50.50
2024-04-25T14:14:57.862Z,51.40
2024-04-25T14:18:59.122Z,53.40
2024-04-25T14:23:00.670Z,50.90
2024-04-25T14:27:12.765Z,50.90
2024-04-25T14:31:17.240Z,52.10
2024-04-25T14:35:18.526Z,51.80
2024-04-25T14:39:20.036Z,59.90
2024-04-25T14:43:21.403Z,53.70
2024-04-25T14:47:22.845Z,52.80
2024-04-25T14:51:24.147Z,55.60
2024-04-25T14:55:25.546Z,51.10
2024-04-25T14:59:28.515Z,50.10
2024-04-25T15:03:30.261Z,51.40
2024-04-25T15:07:31.594Z,49.30
2024-04-25T15:11:33.035Z,48.10
2024-04-25T15:15:34.494Z,49.20
2024-04-25T15:19:37.841Z,50.40
2024-04-25T15:23:39.536Z,50.20
2024-04-25T15:27:41.110Z,49.40
2024-04-25T15:31:43.592Z,50.30
2024-04-25T15:35:44.912Z,49.40
2024-04-25T15:39:48.537Z,50.40
2024-04-25T15:43:50.192Z,49.40
2024-04-25T15:47:51.610Z,49.80
2024-04-25T15:51:53.235Z,51.20
2024-04-25T15:55:55.831Z,53.10
2024-04-25T15:59:57.324Z,52.20
2024-04-25T16:03:58.735Z,53.40
2024-04-25T16:08:00.440Z,52.60
2024-04-25T16:12:01.886Z,53.40
2024-04-25T16:16:06.097Z,53.20
2024-04-25T16:20:09.104Z,48.70
2024-04-25T16:24:10.457Z,49.10
2024-04-25T16:28:11.752Z,50.30
2024-04-25T16:32:13.078Z,50.70
2024-04-25T16:36:22.132Z,50.90
2024-04-25T16:40:24.580Z,51.00
2024-04-25T16:44:25.930Z,51.00
2024-04-25T16:48:27.342Z,50.80
2024-04-25T16:52:28.781Z,51.20
2024-04-25T16:56:32.005Z,51.70
2024-04-25T17:00:33.346Z,52.00
2024-04-25T17:04:37.234Z,52.30
2024-04-25T17:08:38.735Z,52.00
2024-04-25T17:12:40.099Z,52.90
2024-04-25T17:16:42.643Z,53.10
2024-04-25T17:20:43.934Z,53.60
2024-04-25T17:24:45.363Z,53.40
2024-04-25T17:28:46.677Z,53.10
2024-04-25T17:32:48.139Z,54.10
2024-04-25T17:36:49.528Z,54.00
2024-04-25T17:40:51.940Z,53.20
2024-04-25T17:44:55.317Z,53.90
2024-04-25T17:48:57.158Z,53.00
2024-04-25T17:52:58.642Z,52.40
2024-04-25T17:57:00.021Z,52.50
2024-04-25T18:01:01.340Z,52.70
2024-04-25T18:05:03.980Z,53.00
2024-04-25T18:09:05.614Z,53.80
2024-04-25T18:13:06.938Z,54.00
2024-04-25T18:17:08.872Z,54.40
2024-04-25T18:21:10.211Z,54.80
2024-04-25T18:25:11.827Z,54.90
2024-04-25T18:29:13.731Z,54.90
2024-04-25T18:33:15.478Z,55.20
2024-04-25T18:37:17.066Z,56.20
2024-04-25T18:41:19.806Z,57.10
2024-04-25T18:45:21.543Z,57.50
2024-04-25T18:49:23.112Z,58.30
2024-04-25T18:53:25.237Z,59.60
2024-04-25T18:57:26.549Z,72.50
2024-04-25T19:01:28.908Z,64.60
2024-04-25T19:05:30.263Z,63.70
2024-04-25T19:09:31.992Z,65.00
2024-04-25T19:13:33.799Z,64.80
2024-04-25T19:17:35.732Z,65.30
2024-04-25T19:21:41.738Z,68.20
2024-04-25T19:25:43.182Z,68.50
2024-04-25T19:29:44.539Z,71.30
2024-04-25T19:33:46.568Z,73.40
2024-04-25T19:37:50.002Z,75.70
2024-04-25T19:41:51.409Z,78.60
2024-04-25T19:45:52.742Z,82.20
2024-04-25T19:49:54.073Z,83.80
2024-04-25T19:53:56.801Z,89.70
2024-04-25T19:57:58.752Z,91.80
2024-04-25T20:02:00.730Z,93.60
2024-04-25T20:06:02.370Z,94.80
2024-04-25T20:10:04.333Z,96.50
2024-04-25T20:14:05.655Z,94.40
2024-04-25T20:18:25.705Z,94.70
2024-04-25T20:22:27.085Z,96.90
2024-04-25T20:26:29.215Z,99.90
2024-04-25T20:30:30.556Z,99.90
2024-04-25T20:34:31.886Z,99.90
2024-04-25T20:38:33.324Z,99.90
2024-04-25T20:42:34.801Z,99.90
2024-04-25T20:46:36.100Z,99.90
2024-04-25T20:50:37.635Z,99.90
2024-04-25T20:54:39.834Z,99.90
2024-04-25T20:58:43.025Z,99.90
2024-04-25T21:02:44.550Z,99.90
2024-04-25T21:06:48.202Z,99.90
2024-04-25T21:10:49.405Z,99.90
2024-04-25T21:14:50.739Z,99.90
2024-04-25T21:18:52.207Z,99.90
2024-04-25T21:22:53.781Z,99.90
2024-04-25T21:26:55.277Z,99.90
2024-04-25T21:30:56.615Z,99.90
2024-04-25T21:34:57.979Z,99.90
2024-04-25T21:38:59.320Z,99.90
2024-04-25T21:43:01.133Z,99.90
2024-04-25T21:47:02.763Z,99.90
2024-04-25T21:51:04.390Z,99.90
2024-04-25T21:55:06.177Z,99.90
2024-04-25T21:59:07.479Z,99.90
2024-04-25T22:03:08.936Z,99.90
2024-04-25T22:07:10.324Z,99.90
2024-04-25T22:11:11.716Z,99.90
2024-04-25T22:15:13.238Z,99.90
2024-04-25T22:19:15.210Z,99.90
2024-04-25T22:23:16.806Z,99.90
2024-04-25T22:27:18.115Z,99.90
2024-04-25T22:31:19.433Z,99.90
2024-04-25T22:35:20.844Z,99.90
2024-04-25T22:39:22.371Z,99.90
2024-04-25T22:43:23.728Z,99.90
2024-04-25T22:47:25.096Z,99.90
2024-04-25T22:51:26.460Z,99.90
2024-04-25T22:55:27.771Z,99.90
2024-04-25T22:59:29.124Z,99.90
2024-04-25T23:03:31.860Z,99.90
2024-04-25T23:07:33.558Z,99.90
2024-04-25T23:11:35.040Z,99.90
2024-04-25T23:15:36.382Z,99.90
2024-04-25T23:19:37.781Z,99.90
2024-04-25T23:23:39.099Z,99.90
2024-04-25T23:27:42.413Z,99.90
2024-04-25T23:31:44.665Z,99.90
2024-04-25T23:35:45.990Z,99.90
2024-04-25T23:39:47.414Z,99.90
2024-04-25T23:43:48.705Z,99.90
2024-04-25T23:47:50.101Z,99.90
2024-04-25T23:51:51.433Z,99.90
2024-04-25T23:55:52.784Z,99.90
2024-04-25T23:59:54.173Z,99.90
